world map with SOJ marked

SOJ - Airport

This information may not be accurate or current and is not valid for navigation or flight planning. No warranty of fitness for any purpose is made or implied.

flag of Norway

Donate via PayPal

Additional information is available on the NEW Great Circle Mapper

Location
City:  S°rkjosen, Troms (Romsa), Norway
Name:S°rkjosen Airport
ICAO / IATA:ENSR / SOJ

Details
Type:Airport (Aerodrome, Airfield)
Latitude:69░47'13"N (69.786839)
Longitude:20░57'34"E (20.959444)
Datum:WGS 1984
Elevation:16 ft (5 m)
Runways:unknown number
Longest:2890 ft (881 m)

Time
Timezone:UTC+1 (DST+4)
Local Time:

Weather
METAR:ENSR  041350Z 15015KT CAVOK M13/M19 Q1019 RMK WIND 1119FT 13018KT

Related Locations
Nearby:
Farthest:NZTB: 11598 mi / 18666 km
Terra Nova Bay [Mario Zucchelli Station], AQ

Find:

   beyond  
but within

Other Information
Maps:
Sources:

  


 


Great Circle Mapper   Great Circle Mapper
Great Circle Mapper FAQ   Great Circle Mapper FAQ
  Karl's Home Page
KLS▓   KLS▓ Home
   GC on Facebook
Airlines of the World   Airlines of the World
Donate via PayPal


Copyright © 2004-2019, Karl L. Swartz. All rights reserved.
All trademarks mentioned herein belong to their respective owners.

Please see credits for attribution and copyright information.

Karl Swartz <karl@kls2.com>
  Powered by FreeBSD
Valid HTML 4.01!
Labeled with ICRA
hCard Microformat
Geo Microformat